Time;durP1;ratioP1;P1;durP2;ratioP2;P2;SDS_P1;SDS_P2;PMS_P1;PMS_P2;Temp;Humidity;BMP_temperature;BMP_pressure;BME280_temperature;BME280_humidity;BME280_pressure;Samples;Min_cycle;Max_cycle;Signal;HPM_P1;HPM_P2
2021/11/22 00:01:00;;;;;;;49.88;22.25;;;;;;;-0.13;100.00;94826.28;5088823;27;20054;-72
2021/11/22 00:03:28;;;;;;;78.30;26.67;;;;;;;-0.35;100.00;94828.56;5104946;27;20035;-72
2021/11/22 00:05:56;;;;;;;43.80;18.52;;;;;;;-1.09;100.00;94835.50;5103605;27;20047;-72
2021/11/22 00:08:24;;;;;;;38.05;17.77;;;;;;;-1.38;100.00;94822.19;5108862;27;20578;-72
2021/11/22 00:10:51;;;;;;;44.67;18.58;;;;;;;-1.61;100.00;94837.28;5103850;28;20044;-72
2021/11/22 00:13:18;;;;;;;53.47;25.02;;;;;;;-1.60;100.00;94833.78;5102532;27;20420;-72
2021/11/22 00:15:45;;;;;;;55.45;25.08;;;;;;;-1.63;100.00;94826.44;5103114;27;20046;-72
2021/11/22 00:18:12;;;;;;;52.20;25.52;;;;;;;-1.45;100.00;94835.75;5088831;28;20100;-72
2021/11/22 00:20:39;;;;;;;57.60;25.48;;;;;;;-1.39;100.00;94820.59;5104852;27;20375;-72
2021/11/22 00:23:06;;;;;;;50.55;24.50;;;;;;;-1.26;100.00;94840.56;5106460;27;20048;-73
2021/11/22 00:25:32;;;;;;;38.55;18.15;;;;;;;-1.48;100.00;94834.28;5102229;28;20048;-72
2021/11/22 00:28:00;;;;;;;43.95;18.95;;;;;;;-1.49;100.00;94835.25;5104741;27;20761;-73
2021/11/22 00:31:00;;;;;;;38.53;17.13;;;;;;;-1.40;100.00;94844.53;5087228;27;20074;-73
2021/11/22 00:33:35;;;;;;;39.78;17.77;;;;;;;-1.46;100.00;94845.19;5086363;28;20047;-72
2021/11/22 00:36:08;;;;;;;29.50;13.05;;;;;;;-1.55;100.00;94835.88;5091194;27;20048;-72
2021/11/22 00:38:35;;;;;;;35.33;17.55;;;;;;;-1.44;100.00;94827.94;5103475;28;20450;-73
2021/11/22 00:41:02;;;;;;;37.55;14.30;;;;;;;-1.35;100.00;94816.75;5108479;27;20083;-72
2021/11/22 00:43:29;;;;;;;34.15;17.15;;;;;;;-1.08;100.00;94832.78;5104285;27;20055;-72
2021/11/22 00:45:56;;;;;;;48.67;16.90;;;;;;;-1.00;100.00;94819.97;5104822;27;20047;-72
2021/11/22 00:48:23;;;;;;;35.38;16.23;;;;;;;-0.84;100.00;94831.19;5103264;27;20052;-72
2021/11/22 00:50:52;;;;;;;40.50;15.82;;;;;;;-0.79;100.00;94831.50;5110498;27;20043;-72
2021/11/22 00:53:20;;;;;;;40.80;14.98;;;;;;;-0.72;100.00;94836.75;5106481;27;20040;-72
2021/11/22 00:55:47;;;;;;;25.38;13.50;;;;;;;-0.77;100.00;94825.25;5105524;27;20052;-72
2021/11/22 00:58:14;;;;;;;31.95;15.35;;;;;;;-0.63;100.00;94841.72;5103748;27;20475;-72
2021/11/22 01:00:41;;;;;;;24.17;13.23;;;;;;;-0.59;100.00;94837.88;5102877;28;20050;-73
2021/11/22 01:03:09;;;;;;;32.50;13.98;;;;;;;-0.61;100.00;94824.44;5111681;27;20036;-72
2021/11/22 01:05:35;;;;;;;34.15;13.82;;;;;;;-0.50;100.00;94832.75;5088100;27;20043;-73
2021/11/22 01:08:04;;;;;;;27.67;15.20;;;;;;;-0.57;100.00;94811.34;5108585;27;20039;-72
2021/11/22 01:10:32;;;;;;;42.35;14.35;;;;;;;-0.41;100.00;94824.09;5088897;28;20054;-73
2021/11/22 01:12:59;;;;;;;30.30;12.98;;;;;;;-0.35;100.00;94827.78;5109287;27;20397;-73
2021/11/22 01:15:26;;;;;;;25.02;12.07;;;;;;;-0.30;100.00;94828.88;5102115;28;20054;-72
2021/11/22 01:17:54;;;;;;;22.38;11.55;;;;;;;-0.28;100.00;94824.38;5102360;28;20047;-72
2021/11/22 01:20:33;;;;;;;23.38;11.75;;;;;;;-0.28;100.00;94818.47;5102234;27;20051;-73
2021/11/22 01:23:10;;;;;;;21.48;11.63;;;;;;;-0.21;100.00;94814.31;5107589;27;20055;-73
2021/11/22 01:25:39;;;;;;;22.85;11.18;;;;;;;-0.15;100.00;94812.84;5103622;27;20047;-72
2021/11/22 01:28:07;;;;;;;22.92;12.48;;;;;;;-0.04;100.00;94809.91;5107944;27;20085;-73
2021/11/22 01:30:34;;;;;;;27.45;11.75;;;;;;;-0.08;100.00;94801.75;5103823;27;20051;-72
2021/11/22 01:33:01;;;;;;;25.30;12.10;;;;;;;0.02;100.00;94814.38;5102455;27;20043;-73
2021/11/22 01:35:27;;;;;;;19.55;10.65;;;;;;;-0.07;100.00;94794.91;5100891;28;20109;-73
2021/11/22 01:37:54;;;;;;;26.30;12.27;;;;;;;-0.07;100.00;94800.03;5104034;27;20040;-72
2021/11/22 01:40:23;;;;;;;25.00;10.50;;;;;;;-0.01;100.00;94809.59;5102393;27;20071;-72
2021/11/22 01:42:52;;;;;;;25.70;10.15;;;;;;;-0.03;100.00;94811.53;5103597;27;20051;-73
2021/11/22 01:45:21;;;;;;;21.42;10.73;;;;;;;0.00;100.00;94808.63;5103929;27;20418;-73
2021/11/22 01:47:48;;;;;;;23.65;12.35;;;;;;;-0.02;100.00;94811.34;5100862;28;20124;-73
2021/11/22 01:50:18;;;;;;;20.02;9.93;;;;;;;-0.02;100.00;94802.88;5100380;28;20043;-72
2021/11/22 01:52:47;;;;;;;25.38;9.90;;;;;;;-0.14;100.00;94799.88;5101856;27;20047;-73
2021/11/22 01:55:17;;;;;;;19.92;11.55;;;;;;;-0.08;100.00;94811.22;5099694;28;20048;-73
2021/11/22 01:57:45;;;;;;;20.75;11.25;;;;;;;-0.17;100.00;94809.66;5083105;28;20492;-73
2021/11/22 02:00:17;;;;;;;21.48;12.05;;;;;;;-0.18;100.00;94802.91;5100555;28;20047;-72
2021/11/22 02:02:45;;;;;;;21.92;10.77;;;;;;;-0.18;100.00;94808.84;5100062;28;20039;-72
2021/11/22 02:05:12;;;;;;;26.52;10.85;;;;;;;-0.24;100.00;94805.16;5104565;27;20507;-72
2021/11/22 02:07:40;;;;;;;22.80;10.73;;;;;;;-0.30;100.00;94795.59;5102382;28;20039;-72
2021/11/22 02:10:08;;;;;;;21.10;10.65;;;;;;;-0.24;100.00;94799.25;5101769;28;20051;-72
2021/11/22 02:12:35;;;;;;;27.80;12.60;;;;;;;-0.34;100.00;94798.63;5105368;27;20039;-72
2021/11/22 02:15:06;;;;;;;32.70;13.80;;;;;;;-0.41;100.00;94799.31;5100804;28;20469;-72
2021/11/22 02:17:36;;;;;;;22.98;12.65;;;;;;;-0.41;100.00;94798.50;5103697;28;20051;-72
2021/11/22 02:20:12;;;;;;;24.92;12.13;;;;;;;-0.48;100.00;94802.69;5082642;28;20051;-73
2021/11/22 02:22:44;;;;;;;25.90;12.27;;;;;;;-0.47;100.00;94809.38;5103673;28;20039;-73
2021/11/22 02:25:12;;;;;;;30.60;14.00;;;;;;;-0.43;100.00;94810.69;5101484;28;20058;-72
2021/11/22 02:27:41;;;;;;;22.75;10.95;;;;;;;-0.45;100.00;94802.34;5104746;28;20092;-73
2021/11/22 02:30:10;;;;;;;21.23;11.60;;;;;;;-0.44;100.00;94793.72;5102681;28;20040;-72
2021/11/22 02:32:40;;;;;;;27.95;11.43;;;;;;;-0.56;100.00;94805.25;5100769;28;20058;-72
2021/11/22 02:35:14;;;;;;;24.50;12.15;;;;;;;-0.75;100.00;94812.31;5100103;28;20036;-73
2021/11/22 02:37:41;;;;;;;32.83;14.93;;;;;;;-0.73;100.00;94800.16;5103017;28;20496;-72
2021/11/22 02:40:08;;;;;;;20.10;11.57;;;;;;;-0.74;100.00;94811.34;5099253;28;20428;-72
2021/11/22 02:42:40;;;;;;;27.42;14.18;;;;;;;-0.73;100.00;94800.16;5100307;28;20117;-73
2021/11/22 02:45:09;;;;;;;29.50;15.43;;;;;;;-0.82;100.00;94791.69;5086600;28;20416;-73
2021/11/22 02:47:36;;;;;;;36.28;15.23;;;;;;;-0.83;100.00;94799.53;5102893;28;20055;-72
2021/11/22 02:50:04;;;;;;;35.65;17.05;;;;;;;-0.92;100.00;94790.25;5105463;27;20122;-72
2021/11/22 02:52:31;;;;;;;29.52;15.07;;;;;;;-1.15;100.00;94760.25;5105560;27;20043;-72
2021/11/22 02:54:58;;;;;;;27.98;14.07;;;;;;;-0.90;100.00;94793.44;5104065;27;20405;-72
2021/11/22 02:57:27;;;;;;;36.70;14.77;;;;;;;-0.98;100.00;94787.38;5103950;27;20042;-72
2021/11/22 02:59:54;;;;;;;35.30;14.43;;;;;;;-1.01;100.00;94785.16;5104715;27;20100;-71
2021/11/22 03:02:21;;;;;;;24.67;11.85;;;;;;;-0.93;100.00;94804.03;5111905;27;20051;-72
2021/11/22 03:04:48;;;;;;;21.42;11.32;;;;;;;-0.89;100.00;94810.41;5094423;27;20043;-73
2021/11/22 03:07:14;;;;;;;44.58;13.10;;;;;;;-0.92;100.00;94805.59;5108786;27;20050;-72
2021/11/22 03:09:41;;;;;;;26.55;13.55;;;;;;;-0.97;100.00;94791.53;5109732;27;20047;-72
2021/11/22 03:12:11;;;;;;;23.77;12.23;;;;;;;-0.94;100.00;94800.63;5105890;27;20032;-72
2021/11/22 03:14:39;;;;;;;31.33;13.20;;;;;;;-1.00;100.00;94794.41;5096678;28;20046;-72
2021/11/22 03:17:07;;;;;;;30.50;13.52;;;;;;;-1.08;100.00;94791.88;5109783;27;20492;-72
2021/11/22 03:19:35;;;;;;;30.48;12.95;;;;;;;-1.01;100.00;94807.34;5087853;28;20512;-72
2021/11/22 03:22:02;;;;;;;22.10;13.80;;;;;;;-1.10;100.00;94798.88;5109869;27;20047;-72
2021/11/22 03:24:29;;;;;;;30.88;13.13;;;;;;;-1.17;100.00;94803.03;5111443;27;20047;-73
2021/11/22 03:26:55;;;;;;;25.40;12.25;;;;;;;-1.16;100.00;94804.63;5109376;27;20036;-72
2021/11/22 03:29:22;;;;;;;31.95;13.82;;;;;;;-1.16;100.00;94805.44;5108318;27;20043;-72
2021/11/22 03:31:49;;;;;;;22.00;11.98;;;;;;;-1.23;100.00;94793.44;5097210;27;20047;-72
2021/11/22 03:34:16;;;;;;;28.58;13.35;;;;;;;-1.27;100.00;94808.31;5111181;27;20043;-72
2021/11/22 03:36:44;;;;;;;26.45;12.23;;;;;;;-1.39;100.00;94795.06;5109313;27;20063;-72
2021/11/22 03:39:24;;;;;;;33.40;14.15;;;;;;;-1.31;100.00;94801.13;5109681;27;20053;-72
2021/11/22 03:41:52;;;;;;;25.83;12.95;;;;;;;-1.39;100.00;94805.28;5105225;27;20531;-72
2021/11/22 03:44:19;;;;;;;28.83;13.38;;;;;;;-1.60;100.00;94812.56;5089625;27;20443;-73
2021/11/22 03:46:51;;;;;;;28.85;13.15;;;;;;;-1.59;100.00;94814.16;5116033;27;20092;-73
2021/11/22 03:49:19;;;;;;;27.50;12.80;;;;;;;-1.65;100.00;94794.34;5113749;27;20052;-73
2021/11/22 03:51:47;;;;;;;26.67;13.80;;;;;;;-1.61;100.00;94805.84;5110061;27;20068;-72
2021/11/22 03:54:14;;;;;;;28.45;12.93;;;;;;;-1.55;100.00;94820.53;5101857;28;20047;-72
2021/11/22 03:56:42;;;;;;;24.58;12.77;;;;;;;-1.53;100.00;94818.66;5104819;28;20504;-71
2021/11/22 03:59:10;;;;;;;24.35;13.38;;;;;;;-1.54;100.00;94822.16;5106003;28;20444;-72
2021/11/22 04:01:38;;;;;;;23.63;11.95;;;;;;;-1.86;100.00;94817.75;5105833;27;20049;-72
2021/11/22 04:04:06;;;;;;;25.73;13.68;;;;;;;-1.77;100.00;94821.91;5114404;27;20039;-72
2021/11/22 04:06:33;;;;;;;37.40;17.95;;;;;;;-1.75;100.00;94825.94;5109231;27;20027;-72
2021/11/22 04:09:00;;;;;;;35.97;17.92;;;;;;;-1.71;100.00;94825.59;5105697;27;20050;-72
2021/11/22 04:11:26;;;;;;;24.15;12.90;;;;;;;-1.67;100.00;94826.91;5105505;27;20047;-72
2021/11/22 04:13:53;;;;;;;21.80;13.23;;;;;;;-1.64;100.00;94826.59;5105553;28;20054;-72
2021/11/22 04:16:20;;;;;;;27.17;13.50;;;;;;;-1.68;100.00;94820.19;5104320;28;20169;-72
2021/11/22 04:18:48;;;;;;;21.15;10.93;;;;;;;-1.61;100.00;94836.50;5107383;27;20066;-72
2021/11/22 04:21:17;;;;;;;30.23;12.52;;;;;;;-1.62;100.00;94829.78;5108904;27;20047;-72
2021/11/22 04:23:45;;;;;;;24.73;11.85;;;;;;;-1.77;100.00;94812.50;5109497;27;20374;-72
2021/11/22 04:26:12;;;;;;;23.67;11.00;;;;;;;-1.75;100.00;94809.78;5104689;28;20047;-72
2021/11/22 04:28:40;;;;;;;24.92;13.10;;;;;;;-1.69;100.00;94813.47;5096661;28;20070;-73
2021/11/22 04:31:07;;;;;;;24.80;12.13;;;;;;;-1.64;100.00;94821.47;5108287;27;20554;-71
2021/11/22 04:33:36;;;;;;;19.73;10.52;;;;;;;-1.61;100.00;94821.97;5110763;27;20050;-72
2021/11/22 04:36:04;;;;;;;25.10;12.13;;;;;;;-1.60;100.00;94838.91;5106605;27;20032;-73
2021/11/22 04:38:31;;;;;;;22.20;10.52;;;;;;;-1.63;100.00;94833.31;5104818;27;20031;-72
2021/11/22 04:40:58;;;;;;;23.38;11.73;;;;;;;-1.60;100.00;94838.09;5109281;27;20042;-72
2021/11/22 04:43:25;;;;;;;27.08;12.95;;;;;;;-1.61;100.00;94831.38;5111134;27;20500;-72
2021/11/22 04:45:52;;;;;;;27.95;12.70;;;;;;;-1.61;100.00;94841.59;5111037;27;20040;-72
2021/11/22 04:48:19;;;;;;;23.38;12.93;;;;;;;-1.63;100.00;94833.31;5105502;28;20031;-72
2021/11/22 04:50:46;;;;;;;32.65;15.13;;;;;;;-1.78;100.00;94833.91;5105140;27;20151;-72
2021/11/22 04:53:13;;;;;;;49.17;19.80;;;;;;;-1.70;100.00;94848.44;5103130;28;20127;-72
2021/11/22 04:55:40;;;;;;;87.88;31.48;;;;;;;-1.60;100.00;94853.44;5103671;28;20040;-72
2021/11/22 04:58:08;;;;;;;91.82;35.75;;;;;;;-1.51;100.00;94856.78;5110933;27;20046;-73
2021/11/22 05:00:36;;;;;;;59.55;24.27;;;;;;;-1.42;100.00;94861.00;5107165;27;20122;-73
2021/11/22 05:03:04;;;;;;;50.97;21.23;;;;;;;-1.42;100.00;94846.44;5106411;27;20089;-72
2021/11/22 05:05:31;;;;;;;64.88;24.98;;;;;;;-1.48;100.00;94841.94;5093478;27;20043;-73
2021/11/22 05:08:05;;;;;;;52.65;23.38;;;;;;;-1.30;100.00;94859.72;5094981;27;20043;-73
2021/11/22 05:10:44;;;;;;;57.38;27.75;;;;;;;-1.22;100.00;94864.84;5085560;27;20114;-72
2021/11/22 05:13:14;;;;;;;52.50;22.98;;;;;;;-1.12;100.00;94867.25;5107007;27;20032;-72
2021/11/22 05:15:42;;;;;;;49.85;21.60;;;;;;;-1.04;100.00;94869.84;5108161;27;20038;-72
2021/11/22 05:18:11;;;;;;;49.53;20.60;;;;;;;-1.00;100.00;94875.44;5106860;27;20035;-72
2021/11/22 05:20:39;;;;;;;52.58;21.98;;;;;;;-1.14;100.00;94876.84;5104166;27;20538;-73
2021/11/22 05:23:07;;;;;;;59.90;22.20;;;;;;;-1.13;100.00;94855.44;5109230;27;20052;-72
2021/11/22 05:25:35;;;;;;;52.85;20.35;;;;;;;-1.03;100.00;94880.84;5109275;27;20047;-73
2021/11/22 05:28:02;;;;;;;63.38;22.88;;;;;;;-1.10;100.00;94865.34;5108555;27;20048;-73
2021/11/22 05:30:29;;;;;;;42.50;17.75;;;;;;;-1.01;100.00;94884.88;5095283;27;20050;-73
2021/11/22 05:33:00;;;;;;;35.83;14.85;;;;;;;-1.01;100.00;94884.88;5103071;28;20082;-72
2021/11/22 05:35:29;;;;;;;35.15;14.65;;;;;;;-0.98;100.00;94879.41;5110117;27;20093;-72
2021/11/22 05:37:56;;;;;;;55.25;19.90;;;;;;;-0.94;100.00;94874.78;5103173;28;20044;-72
2021/11/22 05:40:23;;;;;;;51.03;21.38;;;;;;;-1.11;100.00;94879.09;5112330;27;20071;-72
2021/11/22 05:42:51;;;;;;;329.55;88.50;;;;;;;-0.96;100.00;94882.63;5115916;27;20040;-72
2021/11/22 05:45:19;;;;;;;126.03;48.92;;;;;;;-0.90;100.00;94880.38;5112344;27;20039;-73
2021/11/22 05:47:47;;;;;;;107.82;45.75;;;;;;;-0.91;100.00;94873.69;5107451;27;20047;-73
2021/11/22 05:50:15;;;;;;;66.15;25.33;;;;;;;-1.09;100.00;94892.50;5111994;27;20043;-73
2021/11/22 05:52:49;;;;;;;52.42;21.17;;;;;;;-1.29;100.00;94896.31;5102617;27;20932;-73
2021/11/22 05:55:22;;;;;;;50.95;21.33;;;;;;;-1.35;100.00;94898.53;5102018;28;20051;-72
2021/11/22 05:57:49;;;;;;;44.75;17.95;;;;;;;-1.32;100.00;94902.53;5103091;28;20042;-72
2021/11/22 06:00:16;;;;;;;43.97;18.95;;;;;;;-1.32;100.00;94901.72;5102251;28;20048;-72
2021/11/22 06:02:43;;;;;;;49.65;20.80;;;;;;;-1.25;100.00;94910.38;5105211;27;20058;-72
2021/11/22 06:05:10;;;;;;;61.80;25.40;;;;;;;-1.10;100.00;94906.25;5103153;28;20077;-72
2021/11/22 06:07:39;;;;;;;63.97;29.27;;;;;;;-0.94;100.00;94907.25;5108873;27;20035;-72
2021/11/22 06:10:07;;;;;;;90.93;31.40;;;;;;;-0.88;100.00;94909.16;5103559;28;20058;-72
2021/11/22 06:12:34;;;;;;;94.93;34.75;;;;;;;-0.89;100.00;94907.56;5102357;28;20057;-72
2021/11/22 06:15:01;;;;;;;55.60;24.90;;;;;;;-0.97;100.00;94905.81;5107697;27;20036;-72
2021/11/22 06:17:28;;;;;;;57.95;21.73;;;;;;;-1.07;100.00;94898.25;5102763;28;20043;-72
2021/11/22 06:19:55;;;;;;;60.90;27.88;;;;;;;-0.78;100.00;94900.38;5090616;28;20047;-72
2021/11/22 06:22:22;;;;;;;50.05;20.90;;;;;;;-0.88;100.00;94915.09;5109004;27;20043;-72
2021/11/22 06:24:49;;;;;;;65.55;28.55;;;;;;;-1.20;100.00;94880.03;5106834;27;20108;-72
2021/11/22 06:27:16;;;;;;;46.42;22.98;;;;;;;-0.94;100.00;94904.69;5108810;27;20040;-73
2021/11/22 06:29:43;;;;;;;67.38;31.73;;;;;;;-0.86;100.00;94912.38;5112286;27;20043;-72
2021/11/22 06:32:11;;;;;;;55.00;28.17;;;;;;;-0.89;100.00;94917.78;5112447;27;20058;-72
2021/11/22 06:34:40;;;;;;;44.70;22.75;;;;;;;-0.90;100.00;94911.06;5110926;27;20051;-73
2021/11/22 06:37:07;;;;;;;58.08;24.88;;;;;;;-0.96;100.00;94913.28;5106807;28;20050;-73
2021/11/22 06:39:36;;;;;;;38.97;17.63;;;;;;;-0.83;100.00;94917.16;5111063;27;20043;-73
2021/11/22 06:42:04;;;;;;;38.35;17.77;;;;;;;-0.74;100.00;94916.19;5112840;27;20050;-72
2021/11/22 06:44:30;;;;;;;50.90;21.45;;;;;;;-0.78;100.00;94889.34;5116610;27;20042;-72
2021/11/22 06:46:57;;;;;;;74.03;32.55;;;;;;;-0.70;100.00;94922.63;5111573;27;20047;-72
2021/11/22 06:49:24;;;;;;;74.13;30.38;;;;;;;-0.60;100.00;94907.91;5115523;27;20044;-73
2021/11/22 06:51:52;;;;;;;159.13;63.00;;;;;;;-0.60;100.00;94910.44;5093298;27;20039;-73
2021/11/22 06:54:19;;;;;;;69.18;30.60;;;;;;;-0.40;100.00;94916.06;5107258;27;20044;-72
2021/11/22 06:56:46;;;;;;;47.50;22.48;;;;;;;-0.67;100.00;94901.03;5106485;28;20094;-72
2021/11/22 06:59:13;;;;;;;49.13;21.67;;;;;;;-0.56;100.00;94907.59;5088017;28;20412;-72
2021/11/22 07:01:40;;;;;;;38.35;17.75;;;;;;;-0.44;100.00;94885.84;5091999;28;20043;-72
2021/11/22 07:04:07;;;;;;;40.78;19.52;;;;;;;-0.37;100.00;94902.16;5109595;27;20114;-72
2021/11/22 07:06:34;;;;;;;48.78;21.80;;;;;;;-0.22;100.00;94890.31;5111540;27;20046;-73
2021/11/22 07:09:02;;;;;;;45.83;15.85;;;;;;;-0.21;100.00;94881.66;5107822;27;20040;-73
2021/11/22 07:11:29;;;;;;;44.67;19.25;;;;;;;-0.03;100.00;94893.47;5116425;27;20408;-72
2021/11/22 07:13:56;;;;;;;46.65;20.35;;;;;;;0.28;100.00;94895.28;5106961;27;20047;-73
2021/11/22 07:16:23;;;;;;;48.38;22.73;;;;;;;0.46;100.00;94898.41;5109950;27;20618;-73
2021/11/22 07:18:52;;;;;;;47.63;21.92;;;;;;;0.43;100.00;94892.84;5088957;28;20028;-74
2021/11/22 07:21:19;;;;;;;69.78;31.27;;;;;;;0.51;100.00;94891.03;5106564;27;20060;-74
2021/11/22 07:23:46;;;;;;;55.10;26.45;;;;;;;0.73;100.00;94898.94;5103656;27;20067;-73
2021/11/22 07:26:13;;;;;;;60.90;26.85;;;;;;;1.03;100.00;94906.81;5081964;27;20047;-73
2021/11/22 07:28:39;;;;;;;46.03;22.95;;;;;;;1.21;100.00;94897.06;5103632;27;20058;-73
2021/11/22 07:31:06;;;;;;;52.45;23.33;;;;;;;1.47;100.00;94893.34;5099077;27;20044;-70
2021/11/22 07:33:35;;;;;;;63.63;25.55;;;;;;;1.63;100.00;94888.06;5102155;27;20036;-71
2021/11/22 07:36:02;;;;;;;62.80;28.40;;;;;;;1.87;100.00;94891.38;5102765;27;20058;-70
2021/11/22 07:38:29;;;;;;;54.83;26.63;;;;;;;2.08;100.00;94899.22;5103302;27;20409;-73
2021/11/22 07:40:56;;;;;;;57.83;25.95;;;;;;;2.31;100.00;94892.41;5105508;27;20043;-74
2021/11/22 07:43:22;;;;;;;50.05;23.77;;;;;;;2.51;100.00;94898.59;5101309;27;20054;-74
2021/11/22 07:45:49;;;;;;;62.67;25.85;;;;;;;2.62;100.00;94879.34;5101903;27;20044;-73
2021/11/22 07:48:16;;;;;;;54.05;27.25;;;;;;;2.98;100.00;94904.28;5099083;27;20039;-73
2021/11/22 07:50:43;;;;;;;60.88;29.30;;;;;;;3.18;100.00;94900.13;5103236;27;20044;-74
2021/11/22 07:53:31;;;;;;;56.42;27.50;;;;;;;3.39;100.00;94898.56;5081661;27;20036;-73
2021/11/22 07:55:59;;;;;;;63.25;28.63;;;;;;;3.49;100.00;94891.28;5101156;27;20043;-74
2021/11/22 07:58:25;;;;;;;59.75;25.15;;;;;;;3.68;100.00;94904.56;5081551;27;20043;-74
2021/11/22 08:00:52;;;;;;;61.25;27.70;;;;;;;3.72;100.00;94905.75;5081164;27;20035;-75
2021/11/22 08:03:20;;;;;;;51.00;24.70;;;;;;;3.71;100.00;94899.81;5104201;27;20256;-74
2021/11/22 08:05:49;;;;;;;61.90;28.50;;;;;;;3.81;100.00;94889.19;5107920;27;20126;-71
2021/11/22 08:08:16;;;;;;;47.63;25.35;;;;;;;3.85;100.00;94885.25;5099856;27;20103;-72
2021/11/22 08:11:03;;;;;;;46.00;21.90;;;;;;;4.01;100.00;94890.09;5104343;27;20105;-72
2021/11/22 08:13:30;;;;;;;60.58;27.48;;;;;;;4.13;100.00;94885.25;5108561;27;20035;-72
2021/11/22 08:16:02;;;;;;;50.25;22.67;;;;;;;4.31;100.00;94884.75;5086617;27;20052;-71
2021/11/22 08:18:30;;;;;;;54.42;24.27;;;;;;;4.53;100.00;94892.41;5092934;28;20047;-71
2021/11/22 08:20:57;;;;;;;39.00;18.77;;;;;;;4.65;100.00;94885.72;5091514;28;20050;-71
2021/11/22 08:23:24;;;;;;;35.67;18.35;;;;;;;4.88;100.00;94890.56;5105870;27;20591;-73
2021/11/22 08:25:51;;;;;;;34.50;18.27;;;;;;;5.07;100.00;94893.38;5110850;27;20901;-71
2021/11/22 08:28:18;;;;;;;35.63;15.85;;;;;;;5.20;100.00;94893.41;5107096;27;20911;-72
2021/11/22 08:30:46;;;;;;;30.30;14.90;;;;;;;5.34;100.00;94889.84;5114617;27;20047;-72
2021/11/22 08:33:14;;;;;;;32.45;15.30;;;;;;;5.57;100.00;94893.09;5090471;27;20051;-72
2021/11/22 08:35:42;;;;;;;28.67;13.73;;;;;;;5.76;100.00;94876.75;5106718;27;20053;-72
2021/11/22 08:38:09;;;;;;;29.13;15.10;;;;;;;5.90;100.00;94882.72;5105363;27;20031;-72
2021/11/22 08:40:40;;;;;;;32.85;16.63;;;;;;;6.10;100.00;94887.91;5109616;27;20432;-73
2021/11/22 08:43:13;;;;;;;28.58;16.45;;;;;;;6.22;100.00;94891.47;5096762;27;20039;-74
2021/11/22 08:45:41;;;;;;;28.85;15.57;;;;;;;6.31;100.00;94890.25;5116055;27;20487;-75
2021/11/22 08:48:08;;;;;;;30.70;16.90;;;;;;;6.54;100.00;94883.84;5112606;27;20109;-75
2021/11/22 08:50:36;;;;;;;29.98;16.45;;;;;;;6.67;100.00;94883.78;5108285;27;20032;-74
2021/11/22 08:53:03;;;;;;;29.90;15.93;;;;;;;6.88;100.00;94874.16;5108558;27;20040;-74
2021/11/22 08:55:30;;;;;;;28.33;15.38;;;;;;;7.01;99.75;94873.31;5111615;27;20116;-74
2021/11/22 08:57:57;;;;;;;31.90;15.95;;;;;;;7.26;99.45;94881.13;5106571;27;20040;-74
2021/11/22 09:00:28;;;;;;;35.13;16.58;;;;;;;7.61;97.16;94878.09;5112852;27;20051;-75
2021/11/22 09:02:55;;;;;;;32.65;16.88;;;;;;;7.95;95.65;94868.28;5108452;27;20069;-74
2021/11/22 09:05:23;;;;;;;28.48;15.75;;;;;;;8.27;91.01;94875.97;5086502;27;20070;-74
2021/11/22 09:07:50;;;;;;;28.75;15.52;;;;;;;8.40;89.62;94865.44;5111305;27;20040;-73
2021/11/22 09:10:18;;;;;;;34.50;16.70;;;;;;;8.23;91.29;94855.63;5110952;27;20055;-74
2021/11/22 09:12:45;;;;;;;42.72;19.75;;;;;;;8.31;90.59;94871.94;5112511;27;20027;-75
2021/11/22 09:15:12;;;;;;;33.50;17.23;;;;;;;8.45;90.09;94860.44;5112033;27;20043;-75
2021/11/22 09:17:38;;;;;;;31.05;16.65;;;;;;;8.93;89.71;94849.28;5112407;27;20050;-75
2021/11/22 09:20:09;;;;;;;29.90;15.48;;;;;;;9.45;85.56;94871.34;5118940;27;20035;-74
2021/11/22 09:22:37;;;;;;;22.15;13.75;;;;;;;9.61;84.17;94855.09;5116606;27;20039;-74
2021/11/22 09:25:06;;;;;;;26.65;14.13;;;;;;;9.86;82.58;94867.91;5114091;27;20772;-76
2021/11/22 09:27:33;;;;;;;32.90;16.05;;;;;;;10.06;83.66;94862.38;5118219;27;20539;-74
2021/11/22 09:30:00;;;;;;;39.00;19.02;;;;;;;10.06;82.02;94857.19;5116027;27;20036;-75
2021/11/22 09:32:27;;;;;;;38.35;19.83;;;;;;;10.13;82.30;94872.69;5116028;27;20051;-76
2021/11/22 09:34:55;;;;;;;43.42;22.10;;;;;;;9.96;82.06;94867.38;5114177;27;20058;-76
2021/11/22 09:37:22;;;;;;;36.28;19.42;;;;;;;9.86;83.24;94856.72;5092675;27;20047;-75
2021/11/22 09:39:49;;;;;;;36.35;19.08;;;;;;;9.96;82.53;94864.78;5115592;27;20035;-76
2021/11/22 09:42:16;;;;;;;34.67;18.55;;;;;;;10.12;82.20;94856.28;5113850;27;20036;-74
2021/11/22 09:44:43;;;;;;;38.35;20.48;;;;;;;10.16;83.40;94855.84;5106644;27;20059;-73
2021/11/22 09:47:10;;;;;;;31.38;16.63;;;;;;;10.13;80.81;94847.44;5118948;27;20054;-75
2021/11/22 09:49:37;;;;;;;31.92;16.88;;;;;;;10.02;81.17;94818.84;5114417;27;20036;-75
2021/11/22 09:52:04;;;;;;;36.08;18.10;;;;;;;10.27;79.57;94848.00;5100505;27;20040;-75
2021/11/22 09:54:31;;;;;;;34.33;18.00;;;;;;;10.34;79.17;94853.13;5085612;27;20058;-75
2021/11/22 09:56:58;;;;;;;110.93;31.70;;;;;;;10.24;79.36;94837.25;5114449;27;20035;-75
2021/11/22 09:59:26;;;;;;;35.67;19.52;;;;;;;10.32;78.54;94839.56;5105255;27;20039;-75
2021/11/22 10:01:55;;;;;;;42.83;19.67;;;;;;;10.66;77.69;94855.31;5115063;27;20039;-75
2021/11/22 10:04:28;;;;;;;31.13;16.20;;;;;;;10.80;76.65;94835.81;5096540;27;20054;-74
2021/11/22 10:07:01;;;;;;;29.45;16.05;;;;;;;10.92;77.72;94833.16;5101236;28;20055;-75
2021/11/22 10:09:31;;;;;;;31.63;17.13;;;;;;;11.06;77.82;94833.69;5111555;27;20063;-75
2021/11/22 10:12:12;;;;;;;30.20;17.48;;;;;;;11.09;75.95;94822.78;5114660;27;20401;-74
2021/11/22 10:14:41;;;;;;;25.70;15.40;;;;;;;11.29;74.82;94828.38;5108472;27;20035;-75
2021/11/22 10:17:34;;;;;;;31.92;16.83;;;;;;;11.52;74.78;94825.84;5115487;27;20520;-74
2021/11/22 10:20:07;;;;;;;28.42;15.70;;;;;;;11.77;73.00;94815.03;5093131;28;20464;-74
2021/11/22 10:23:02;;;;;;;31.42;16.95;;;;;;;11.71;74.60;94813.38;5097173;28;20051;-74
2021/11/22 10:25:33;;;;;;;;;;;;;;;11.82;73.36;94804.66;5114357;28;20441;-74
2021/11/22 10:28:03;;;;;;;31.45;15.18;;;;;;;12.07;71.57;94806.88;5117407;28;20387;-74
2021/11/22 10:30:32;;;;;;;25.75;13.95;;;;;;;11.99;71.47;94809.88;5091625;28;20046;-74
2021/11/22 10:33:02;;;;;;;25.80;14.05;;;;;;;12.03;70.00;94806.56;5086966;28;20051;-74
2021/11/22 10:35:33;;;;;;;30.45;16.05;;;;;;;11.91;70.50;94782.38;5106957;28;20027;-75
2021/11/22 10:38:07;;;;;;;26.13;13.65;;;;;;;11.95;70.22;94804.34;5107369;28;20040;-74
2021/11/22 10:40:37;;;;;;;29.70;16.77;;;;;;;11.74;71.35;94786.78;5115697;28;20042;-75
2021/11/22 10:43:05;;;;;;;25.33;13.73;;;;;;;11.79;71.01;94790.28;5116863;28;20046;-74
2021/11/22 10:45:34;;;;;;;25.40;14.15;;;;;;;11.93;70.98;94803.03;5092507;28;20040;-74
2021/11/22 10:48:21;;;;;;;25.10;14.18;;;;;;;11.87;70.24;94786.47;5110767;28;20057;-74
2021/11/22 10:51:04;;;;;;;27.95;14.50;;;;;;;11.72;71.21;94794.06;5109075;28;20047;-74
2021/11/22 10:53:46;;;;;;;33.33;16.45;;;;;;;11.75;70.93;94786.56;5111036;28;20528;-74
2021/11/22 10:56:25;;;;;;;27.10;14.68;;;;;;;11.70;70.87;94796.13;5115606;28;20050;-74
2021/11/22 10:59:05;;;;;;;27.15;14.48;;;;;;;11.46;71.10;94796.28;5106997;28;20039;-74
2021/11/22 11:01:44;;;;;;;26.63;15.00;;;;;;;11.54;71.76;94784.66;5077601;28;20425;-74
2021/11/22 11:04:23;;;;;;;25.92;14.45;;;;;;;11.66;71.14;94783.56;5090032;28;20046;-74
2021/11/22 11:06:54;;;;;;;28.05;13.82;;;;;;;11.80;71.10;94788.47;5112442;28;20416;-74
2021/11/22 11:09:32;;;;;;;26.58;15.93;;;;;;;12.00;70.79;94801.03;5095859;27;20035;-74
2021/11/22 11:12:08;;;;;;;24.02;13.85;;;;;;;11.98;70.84;94785.59;5108518;27;20039;-75
2021/11/22 11:14:38;;;;;;;26.10;14.23;;;;;;;12.03;71.17;94784.91;5111670;27;20039;-74
2021/11/22 11:17:36;;;;;;;31.55;15.10;;;;;;;12.13;69.82;94794.69;5111779;27;20066;-74
2021/11/22 11:20:11;;;;;;;24.05;13.73;;;;;;;12.04;69.39;94784.63;5109139;27;20035;-75